Time;durP1;ratioP1;P1;durP2;ratioP2;P2;SDS_P1;SDS_P2;PMS_P1;PMS_P2;Temp;Humidity;BMP_temperature;BMP_pressure;BME280_temperature;BME280_humidity;BME280_pressure;Samples;Min_cycle;Max_cycle;Signal;HPM_P1;HPM_P2
2021/12/02 00:00:40;;;;;;;;;4.75;3.00;;;;;8.40;67.58;100001.44;5078161;28;45498;-55
2021/12/02 00:03:08;;;;;;;;;5.00;2.00;;;;;8.41;67.78;99995.16;5059607;28;47540;-56
2021/12/02 00:05:33;;;;;;;;;6.00;4.00;;;;;8.40;68.09;99998.78;5077983;28;45197;-53
2021/12/02 00:07:59;;;;;;;;;3.00;2.25;;;;;8.39;68.46;99999.78;5077890;28;45280;-55
2021/12/02 00:10:28;;;;;;;;;4.00;1.50;;;;;8.41;68.42;99995.16;5078038;28;45214;-55
2021/12/02 00:12:56;;;;;;;;;4.50;1.75;;;;;8.41;67.98;99998.63;5077685;28;46600;-56
2021/12/02 00:15:24;;;;;;;;;2.25;2.25;;;;;8.40;67.59;99998.78;5077703;28;45432;-54
2021/12/02 00:18:07;;;;;;;;;1.25;1.25;;;;;8.41;68.13;100003.09;5077597;28;45260;-56
2021/12/02 00:23:43;;;;;;;;;3.00;3.00;;;;;8.34;68.59;100002.00;5077605;28;45784;-54
2021/12/02 00:26:16;;;;;;;;;5.00;4.00;;;;;8.33;68.19;100010.94;5077515;28;45402;-53
2021/12/02 00:28:42;;;;;;;;;3.50;1.25;;;;;8.29;68.74;100009.56;5077731;28;45159;-56
2021/12/02 00:31:15;;;;;;;;;4.00;1.50;;;;;8.29;68.09;100012.22;5077797;28;45497;-55
2021/12/02 00:33:45;;;;;;;;;2.00;2.00;;;;;7.91;67.69;99955.84;5077372;28;45422;-54
2021/12/02 00:36:15;;;;;;;;;6.00;2.50;;;;;8.25;67.71;100023.09;5077499;28;45278;-55
2021/12/02 00:38:42;;;;;;;;;4.25;2.00;;;;;8.25;68.05;100025.75;5077466;28;45337;-55
2021/12/02 00:41:12;;;;;;;;;2.00;2.00;;;;;8.29;68.82;100028.13;5077530;28;45352;-54
2021/12/02 00:43:39;;;;;;;;;6.00;4.50;;;;;8.28;68.58;100024.63;5077134;28;45465;-54
2021/12/02 00:46:08;;;;;;;;;1.50;1.00;;;;;8.29;68.35;100023.66;5077343;28;45379;-54
2021/12/02 00:48:35;;;;;;;;;2.50;2.50;;;;;8.36;69.22;100023.91;5077508;28;45336;-56
2021/12/02 00:51:02;;;;;;;;;4.00;4.00;;;;;8.37;68.78;100022.94;5077511;28;45431;-54
2021/12/02 00:53:30;;;;;;;;;4.00;4.00;;;;;8.38;68.85;100028.06;5076502;28;46260;-56
2021/12/02 00:55:55;;;;;;;;;4.00;4.00;;;;;8.36;69.17;100024.72;5076974;28;45353;-55
2021/12/02 00:58:23;;;;;;;;;3.00;1.00;;;;;8.40;69.70;100030.59;5077171;28;45416;-55
2021/12/02 01:00:51;;;;;;;;;6.00;1.75;;;;;8.27;70.33;100017.69;5077434;28;45347;-54
2021/12/02 01:03:18;;;;;;;;;5.00;2.00;;;;;8.42;69.87;100047.16;5076960;28;47035;-56
2021/12/02 01:05:43;;;;;;;;;1.25;1.25;;;;;8.42;70.68;100042.69;5077099;28;45283;-55
2021/12/02 01:08:08;;;;;;;;;3.00;2.00;;;;;8.42;69.88;100044.50;5077186;28;45245;-54
2021/12/02 01:10:35;;;;;;;;;2.75;2.00;;;;;8.41;70.30;100042.84;5077192;28;45446;-55
2021/12/02 01:13:00;;;;;;;;;3.75;2.00;;;;;8.42;69.74;100048.00;5077163;28;45645;-55
2021/12/02 01:15:26;;;;;;;;;2.00;2.00;;;;;8.44;70.17;100048.69;5076278;28;45481;-56
2021/12/02 01:17:51;;;;;;;;;2.75;2.75;;;;;8.44;69.94;100051.34;5077005;28;45252;-52
2021/12/02 01:20:18;;;;;;;;;5.00;2.00;;;;;8.48;69.42;100062.47;5077271;28;45353;-53
2021/12/02 01:22:44;;;;;;;;;6.00;3.00;;;;;8.46;69.62;100057.31;5076650;28;47056;-53
2021/12/02 01:25:10;;;;;;;;;8.25;5.00;;;;;8.47;68.98;100061.66;5076733;28;45428;-54
2021/12/02 01:27:36;;;;;;;;;9.00;4.00;;;;;8.50;69.74;100066.63;5077008;28;45452;-53
2021/12/02 01:30:04;;;;;;;;;3.50;2.00;;;;;8.52;69.17;100063.84;5059174;28;45329;-54
2021/12/02 01:32:33;;;;;;;;;6.50;2.75;;;;;8.52;69.79;100061.19;5076743;28;46184;-55
2021/12/02 01:35:02;;;;;;;;;3.00;3.00;;;;;8.50;69.58;100065.81;5076953;28;45460;-54
2021/12/02 01:37:28;;;;;;;;;6.00;2.00;;;;;8.49;69.89;100067.63;5076836;28;45337;-54
2021/12/02 01:39:55;;;;;;;;;5.75;4.00;;;;;8.50;70.32;100073.75;5077021;28;45369;-55
2021/12/02 01:42:27;;;;;;;;;3.00;3.00;;;;;8.52;69.88;100076.28;5076239;28;47302;-52
2021/12/02 01:44:55;;;;;;;;;9.00;5.00;;;;;8.47;69.61;100064.31;5076647;28;45397;-52
2021/12/02 01:47:25;;;;;;;;;5.00;5.00;;;;;8.52;69.98;100079.75;5076648;28;45254;-54
2021/12/02 01:49:57;;;;;;;;;8.00;8.00;;;;;8.48;70.37;100089.81;5076766;28;45372;-54
2021/12/02 01:52:27;;;;;;;;;6.00;5.25;;;;;8.46;70.58;100094.41;5076471;28;46085;-53
2021/12/02 01:55:13;;;;;;;;;6.50;6.50;;;;;8.45;69.59;100097.22;5076423;28;45382;-52
2021/12/02 01:57:49;;;;;;;;;8.00;5.75;;;;;8.47;69.14;100101.41;5076330;28;45329;-54
2021/12/02 02:00:20;;;;;;;;;9.50;8.25;;;;;8.49;69.89;100103.91;5076560;28;45158;-54
2021/12/02 02:02:46;;;;;;;;;7.75;6.25;;;;;8.48;68.97;100110.19;5076239;28;45328;-51
2021/12/02 02:05:14;;;;;;;;;13.25;7.00;;;;;8.46;69.62;100109.50;5078350;28;45374;-54
2021/12/02 02:08:02;;;;;;;;;7.75;6.50;;;;;8.44;69.57;100114.97;5079784;28;45206;-54
2021/12/02 02:10:29;;;;;;;;;6.25;6.25;;;;;8.47;69.73;100121.78;5080230;28;45365;-52
2021/12/02 02:12:58;;;;;;;;;5.00;5.00;;;;;8.47;70.01;100121.78;5079576;28;46039;-53
2021/12/02 02:15:25;;;;;;;;;8.50;6.00;;;;;8.45;70.13;100119.28;5079558;28;45241;-54
2021/12/02 02:23:25;;;;;;;;;5.00;5.00;;;;;8.41;69.60;100119.72;5079339;28;45999;-54
2021/12/02 02:25:50;;;;;;;;;9.75;6.00;;;;;8.52;68.72;100153.16;5079283;28;45339;-53
2021/12/02 02:28:16;;;;;;;;;4.00;4.00;;;;;8.50;70.08;100140.84;5079458;28;45248;-52
2021/12/02 02:30:42;;;;;;;;;5.50;4.75;;;;;8.54;68.41;100141.41;5079906;28;45400;-52
2021/12/02 02:33:11;;;;;;;;;6.50;6.50;;;;;8.55;69.16;100147.53;5079239;28;46297;-51
2021/12/02 02:35:36;;;;;;;;;5.00;5.00;;;;;8.54;68.75;100151.16;5079446;28;45306;-54
2021/12/02 02:38:02;;;;;;;;;8.75;6.50;;;;;8.50;69.02;100145.31;5079400;28;45278;-54
2021/12/02 02:40:28;;;;;;;;;5.00;5.00;;;;;8.53;68.61;100149.50;5079622;28;45388;-53
2021/12/02 02:42:59;;;;;;;;;3.00;3.00;;;;;8.51;68.23;100152.28;5079173;28;45577;-54
2021/12/02 02:45:25;;;;;;;;;5.00;3.00;;;;;8.51;68.43;100154.94;5079078;28;45424;-53
2021/12/02 02:47:51;;;;;;;;;3.00;2.25;;;;;8.51;68.42;100160.25;5079130;28;45353;-52
2021/12/02 02:50:17;;;;;;;;;2.00;2.00;;;;;8.52;68.55;100164.59;5079478;28;45452;-54
2021/12/02 02:52:46;;;;;;;;;9.75;3.00;;;;;8.52;68.38;100169.06;5078955;28;46388;-52
2021/12/02 02:55:16;;;;;;;;;3.00;3.00;;;;;8.53;68.20;100166.25;5079092;28;45384;-55
2021/12/02 02:57:56;;;;;;;;;2.75;1.00;;;;;8.50;67.50;100166.53;5078863;28;45385;-52
2021/12/02 03:00:30;;;;;;;;;4.75;4.50;;;;;8.40;67.70;100152.50;5079136;28;45430;-55
2021/12/02 03:03:21;;;;;;;;;5.25;2.00;;;;;8.43;68.39;100160.16;5078741;28;46997;-52
2021/12/02 03:08:39;;;;;;;;;4.75;2.50;;;;;8.43;68.03;100162.81;5079064;28;45296;-54
2021/12/02 03:11:06;;;;;;;;;4.50;4.50;;;;;8.41;67.66;100170.91;5079054;28;45486;-53
2021/12/02 03:13:47;;;;;;;;;4.50;3.00;;;;;8.40;67.68;100168.41;5078376;28;47010;-54
2021/12/02 03:18:56;;;;;;;;;3.50;3.50;;;;;8.37;67.64;100184.59;5078895;28;45294;-54
2021/12/02 03:21:23;;;;;;;;;5.00;3.00;;;;;8.37;67.85;100187.25;5078769;28;45279;-54
2021/12/02 03:23:58;;;;;;;;;8.50;4.00;;;;;8.35;67.35;100183.88;5078496;28;45360;-53
2021/12/02 03:26:25;;;;;;;;;4.00;4.00;;;;;8.36;68.09;100191.69;5078647;28;45318;-51
2021/12/02 03:28:51;;;;;;;;;4.00;3.00;;;;;8.35;67.71;100197.97;5078724;28;45317;-53
2021/12/02 03:31:18;;;;;;;;;8.50;1.00;;;;;8.34;68.03;100192.78;5078823;28;45235;-53
2021/12/02 03:33:43;;;;;;;;;4.50;1.25;;;;;8.28;67.64;100210.13;5078306;28;47376;-54
2021/12/02 03:36:10;;;;;;;;;4.50;2.00;;;;;8.28;67.95;100204.00;5078402;28;45367;-54
2021/12/02 03:38:35;;;;;;;;;6.50;2.00;;;;;8.28;67.37;100196.88;5078425;28;45410;-52
2021/12/02 03:41:02;;;;;;;;;3.00;1.00;;;;;8.28;67.08;100204.00;5078554;28;45444;-53
2021/12/02 03:43:36;;;;;;;;;5.00;1.00;;;;;8.25;66.79;100195.34;5077743;28;47027;-53
2021/12/02 03:46:01;;;;;;;;;1.75;1.25;;;;;8.12;65.77;100188.69;5078235;28;45432;-55
2021/12/02 03:48:27;;;;;;;;;0.00;0.00;;;;;8.18;65.91;100204.03;5078484;28;45325;-54
2021/12/02 03:50:52;;;;;;;;;0.75;0.75;;;;;8.16;66.27;100203.31;5078596;28;45297;-53
2021/12/02 03:53:18;;;;;;;;;2.00;1.00;;;;;8.12;66.40;100202.78;5078093;28;46089;-53
2021/12/02 03:55:43;;;;;;;;;1.00;1.00;;;;;8.13;65.47;100207.13;5078316;28;45342;-53
2021/12/02 03:58:08;;;;;;;;;1.75;0.00;;;;;8.16;65.98;100214.75;5078085;28;45399;-53
2021/12/02 04:00:34;;;;;;;;;1.50;1.00;;;;;8.14;65.23;100224.69;5078441;28;45298;-54
2021/12/02 04:02:59;;;;;;;;;6.75;1.50;;;;;8.12;65.20;100228.44;5077942;28;45252;-53
2021/12/02 04:05:24;;;;;;;;;1.00;0.00;;;;;8.07;64.72;100226.22;5077776;28;45459;-54
2021/12/02 04:07:50;;;;;;;;;2.00;0.00;;;;;8.11;65.96;100232.91;5078478;28;45504;-54
2021/12/02 04:10:16;;;;;;;;;1.75;1.00;;;;;8.08;65.15;100235.84;5078122;28;45680;-53
2021/12/02 04:12:54;;;;;;;;;5.00;1.00;;;;;8.08;64.62;100225.22;5077748;28;46136;-53
2021/12/02 04:15:29;;;;;;;;;2.50;0.00;;;;;7.94;65.53;100202.69;5077871;28;45359;-53
2021/12/02 04:17:55;;;;;;;;;3.25;1.00;;;;;8.02;64.23;100228.47;5077845;28;45413;-54
2021/12/02 04:20:22;;;;;;;;;4.25;0.75;;;;;7.96;65.13;100226.38;5077959;28;45392;-54
2021/12/02 04:22:49;;;;;;;;;0.75;0.75;;;;;7.79;64.35;100220.00;5077666;28;45413;-52
2021/12/02 04:25:16;;;;;;;;;3.25;1.00;;;;;7.68;63.90;100221.00;5077579;28;45384;-55
2021/12/02 04:27:42;;;;;;;;;2.00;0.50;;;;;7.68;64.23;100223.63;5076786;28;45245;-54
2021/12/02 04:30:10;;;;;;;;;1.00;1.00;;;;;7.67;63.86;100237.88;5077784;28;45580;-54
2021/12/02 04:32:35;;;;;;;;;1.50;0.00;;;;;7.64;64.37;100242.59;5077430;28;47100;-53
2021/12/02 04:35:01;;;;;;;;;1.00;1.00;;;;;7.61;62.86;100242.88;5077514;28;45384;-56
2021/12/02 04:37:26;;;;;;;;;1.00;1.00;;;;;7.56;62.25;100245.09;5077881;28;45320;-56
2021/12/02 04:39:52;;;;;;;;;0.25;0.25;;;;;7.51;62.32;100258.75;5077698;28;45316;-55
2021/12/02 04:42:17;;;;;;;;;0.75;0.75;;;;;7.46;62.61;100267.13;5058982;28;46203;-56
2021/12/02 04:44:43;;;;;;;;;2.25;1.00;;;;;7.44;62.26;100271.69;5077127;28;45571;-56
2021/12/02 04:47:08;;;;;;;;;4.25;1.00;;;;;7.39;62.67;100273.94;5077734;28;45299;-53
2021/12/02 04:49:35;;;;;;;;;0.25;0.25;;;;;7.35;63.09;100274.34;5077759;28;45518;-56
2021/12/02 04:52:01;;;;;;;;;1.50;0.00;;;;;7.30;63.09;100281.84;5077305;28;46900;-56
2021/12/02 04:54:26;;;;;;;;;1.00;1.00;;;;;7.28;63.18;100286.44;5077316;28;45323;-55
2021/12/02 04:56:52;;;;;;;;;3.50;1.00;;;;;7.24;63.57;100292.00;5077500;28;45537;-56
2021/12/02 04:59:17;;;;;;;;;0.25;0.00;;;;;7.20;63.73;100282.66;5077520;28;45415;-56
2021/12/02 05:01:42;;;;;;;;;0.75;0.75;;;;;7.11;63.82;100291.41;5077143;28;47104;-54
2021/12/02 05:04:09;;;;;;;;;3.00;0.75;;;;;7.06;63.84;100306.03;5077152;28;45228;-53
2021/12/02 05:06:34;;;;;;;;;1.00;1.00;;;;;7.04;63.65;100314.09;5077181;28;45506;-57
2021/12/02 05:09:02;;;;;;;;;3.75;0.50;;;;;7.07;64.14;100313.81;5077204;28;45496;-56
2021/12/02 05:11:27;;;;;;;;;4.25;1.00;;;;;6.95;63.96;100285.78;5077312;28;45992;-55
2021/12/02 05:13:53;;;;;;;;;3.50;1.00;;;;;7.03;63.64;100315.03;5076536;28;45373;-54
2021/12/02 05:16:18;;;;;;;;;1.50;1.50;;;;;6.88;64.41;100303.19;5077108;28;45539;-54
2021/12/02 05:18:44;;;;;;;;;0.00;0.00;;;;;6.88;64.32;100300.53;5077395;28;45236;-55
2021/12/02 05:21:09;;;;;;;;;0.00;0.00;;;;;6.90;64.53;100317.09;5076823;28;46009;-54
2021/12/02 05:23:34;;;;;;;;;2.00;0.50;;;;;6.88;64.55;100314.59;5076884;28;45327;-54
2021/12/02 05:26:00;;;;;;;;;3.75;1.00;;;;;6.80;64.30;100310.94;5076984;28;45416;-55
2021/12/02 05:28:25;;;;;;;;;1.00;1.00;;;;;6.79;64.50;100309.28;5077136;28;45264;-56
2021/12/02 05:30:51;;;;;;;;;1.00;1.00;;;;;6.75;64.93;100316.63;5076897;28;45954;-54
2021/12/02 05:33:16;;;;;;;;;0.50;0.50;;;;;6.75;64.53;100322.75;5076884;28;45206;-55
2021/12/02 05:35:42;;;;;;;;;4.25;1.00;;;;;6.80;64.90;100322.34;5076975;28;45144;-55
2021/12/02 05:38:08;;;;;;;;;0.25;0.25;;;;;6.67;64.48;100309.34;5077448;28;45404;-55
2021/12/02 05:40:34;;;;;;;;;1.00;1.00;;;;;6.65;64.32;100305.16;5080409;28;45376;-55
2021/12/02 05:43:00;;;;;;;;;1.00;1.00;;;;;6.75;64.32;100332.50;5080211;28;45443;-54
2021/12/02 05:45:25;;;;;;;;;0.50;0.50;;;;;6.71;64.45;100326.63;5080213;28;45328;-55
2021/12/02 05:47:50;;;;;;;;;2.00;2.00;;;;;6.71;64.49;100329.28;5080550;28;45344;-51
2021/12/02 05:50:16;;;;;;;;;0.00;0.00;;;;;6.73;64.23;100322.03;5079984;28;46186;-57
2021/12/02 05:52:41;;;;;;;;;3.50;2.50;;;;;6.78;64.00;100323.44;5080320;28;45410;-55
2021/12/02 05:55:07;;;;;;;;;1.25;1.25;;;;;6.79;64.21;100325.13;5080496;28;45387;-53
2021/12/02 05:57:32;;;;;;;;;1.50;0.75;;;;;6.75;63.97;100321.91;5080308;28;45255;-55
2021/12/02 05:59:59;;;;;;;;;1.50;1.50;;;;;6.79;63.86;100322.50;5079886;28;46344;-52
2021/12/02 06:02:24;;;;;;;;;4.50;1.75;;;;;6.80;63.80;100332.09;5079841;28;45339;-54
2021/12/02 06:04:52;;;;;;;;;4.25;0.00;;;;;6.74;64.16;100331.66;5079417;28;45285;-54
2021/12/02 06:07:18;;;;;;;;;3.00;1.50;;;;;6.70;64.17;100322.31;5080209;28;45459;-54
2021/12/02 06:09:44;;;;;;;;;4.75;1.00;;;;;6.58;64.91;100314.59;5079540;28;46247;-55
2021/12/02 06:12:09;;;;;;;;;7.50;1.25;;;;;6.63;64.49;100330.91;5079778;28;45410;-52
2021/12/02 06:14:35;;;;;;;;;4.00;1.00;;;;;6.59;64.54;100338.25;5079103;28;45466;-55
2021/12/02 06:17:00;;;;;;;;;2.50;2.00;;;;;6.58;64.58;100351.59;5080036;28;45534;-56
2021/12/02 06:19:26;;;;;;;;;1.00;1.00;;;;;6.54;64.33;100340.44;5079608;28;45340;-56
2021/12/02 06:21:51;;;;;;;;;1.00;1.00;;;;;6.43;64.54;100340.50;5079408;28;45415;-55
2021/12/02 06:24:18;;;;;;;;;4.00;1.50;;;;;6.48;64.67;100348.88;5079762;28;45421;-54
2021/12/02 06:26:43;;;;;;;;;3.00;2.00;;;;;6.45;64.70;100349.16;5079772;28;45288;-55
2021/12/02 06:29:09;;;;;;;;;2.00;0.00;;;;;6.50;64.55;100352.25;5079174;28;45826;-55
2021/12/02 06:31:34;;;;;;;;;1.00;1.00;;;;;6.53;64.91;100362.56;5079509;28;45248;-55
2021/12/02 06:34:00;;;;;;;;;3.00;2.00;;;;;6.54;65.00;100361.59;5079404;28;45248;-55
2021/12/02 06:36:25;;;;;;;;;5.00;1.25;;;;;6.41;64.67;100332.72;5079848;28;45204;-54
2021/12/02 06:38:51;;;;;;;;;3.00;1.75;;;;;6.48;65.00;100351.53;5060890;28;46821;-54
2021/12/02 06:41:18;;;;;;;;;4.25;2.00;;;;;6.43;65.26;100351.09;5079294;28;45193;-55
2021/12/02 06:43:44;;;;;;;;;4.00;1.00;;;;;6.36;65.19;100345.50;5078961;28;45427;-56
2021/12/02 06:46:09;;;;;;;;;6.50;2.00;;;;;6.32;64.97;100354.66;5079100;28;45514;-56
2021/12/02 06:48:35;;;;;;;;;3.00;3.00;;;;;6.28;65.27;100357.66;5079042;28;46034;-55
2021/12/02 06:51:00;;;;;;;;;4.50;2.00;;;;;6.24;64.84;100363.22;5060192;28;45364;-54
2021/12/02 06:53:25;;;;;;;;;1.00;1.00;;;;;6.22;65.26;100370.41;5079307;28;45356;-56
2021/12/02 06:55:51;;;;;;;;;4.50;2.00;;;;;6.19;64.95;100375.09;5079237;28;45339;-56
2021/12/02 06:58:16;;;;;;;;;4.25;3.50;;;;;6.16;64.79;100381.50;5078865;28;45427;-53
2021/12/02 07:00:42;;;;;;;;;1.75;1.75;;;;;6.03;64.90;100386.13;5078879;28;45413;-55
2021/12/02 07:03:07;;;;;;;;;3.25;1.25;;;;;6.13;65.11;100402.03;5079030;28;45378;-55
2021/12/02 07:05:33;;;;;;;;;1.00;1.00;;;;;6.20;64.79;100408.50;5079183;28;45355;-55
2021/12/02 07:07:59;;;;;;;;;5.75;1.75;;;;;6.29;64.77;100404.25;5078779;28;47223;-56
2021/12/02 07:10:25;;;;;;;;;4.75;2.00;;;;;6.34;64.62;100426.66;5078752;28;45310;-56
2021/12/02 07:12:58;;;;;;;;;5.50;3.00;;;;;6.39;64.33;100428.94;5078864;28;45228;-56
2021/12/02 07:15:41;;;;;;;;;4.50;1.25;;;;;6.44;63.75;100434.66;5079015;28;45330;-56
2021/12/02 07:18:12;;;;;;;;;9.00;3.50;;;;;6.49;63.97;100432.50;5078556;28;46272;-53
2021/12/02 07:20:39;;;;;;;;;0.75;0.75;;;;;6.53;63.53;100441.84;5078502;28;45448;-54
2021/12/02 07:23:05;;;;;;;;;1.50;1.50;;;;;6.53;62.84;100436.56;5078101;28;45467;-55
2021/12/02 07:25:32;;;;;;;;;7.50;5.00;;;;;6.50;62.63;100442.09;5078125;28;45395;-55
2021/12/02 07:27:58;;;;;;;;;5.75;2.00;;;;;6.35;62.86;100430.97;5077632;28;46217;-56
2021/12/02 07:30:23;;;;;;;;;8.00;3.00;;;;;6.31;62.92;100434.00;5077830;28;45650;-54
2021/12/02 07:32:55;;;;;;;;;7.50;3.00;;;;;6.26;62.95;100431.75;5078021;28;45313;-53
2021/12/02 07:35:25;;;;;;;;;1.50;1.00;;;;;6.20;62.85;100438.38;5077882;28;45280;-56
2021/12/02 07:37:53;;;;;;;;;0.00;0.00;;;;;6.20;63.22;100441.03;5077732;28;46249;-55
2021/12/02 07:40:21;;;;;;;;;3.50;1.00;;;;;6.21;63.47;100458.53;5077578;28;45358;-55
2021/12/02 07:42:51;;;;;;;;;5.00;3.00;;;;;6.18;63.85;100450.03;5077822;28;45344;-55
2021/12/02 07:45:17;;;;;;;;;4.00;4.00;;;;;6.22;63.68;100460.22;5077745;28;45504;-56
2021/12/02 07:47:42;;;;;;;;;5.75;2.50;;;;;6.22;63.25;100444.38;5077356;28;45336;-54
2021/12/02 07:50:13;;;;;;;;;5.00;4.00;;;;;6.18;63.19;100442.94;5077591;28;45246;-55
2021/12/02 07:52:50;;;;;;;;;4.00;0.00;;;;;6.07;62.98;100428.94;5077611;28;45497;-54
2021/12/02 07:55:17;;;;;;;;;0.75;0.00;;;;;6.17;63.23;100451.00;5077705;28;45317;-56
2021/12/02 07:57:44;;;;;;;;;2.25;1.00;;;;;6.17;63.33;100462.41;5077304;28;46099;-51
2021/12/02 08:00:11;;;;;;;;;4.00;1.00;;;;;6.21;63.02;100457.69;5077108;28;45640;-53
2021/12/02 08:02:41;;;;;;;;;4.00;0.25;;;;;6.29;62.73;100451.78;5076007;28;45332;-53
2021/12/02 08:05:07;;;;;;;;;8.25;1.25;;;;;6.41;62.61;100458.72;5077723;28;45301;-53
2021/12/02 08:07:33;;;;;;;;;4.25;1.00;;;;;6.42;62.90;100439.25;5076984;28;46377;-55
2021/12/02 08:09:58;;;;;;;;;3.50;1.00;;;;;6.68;62.03;100463.50;5077218;28;45407;-52
2021/12/02 08:12:23;;;;;;;;;1.00;1.00;;;;;6.77;61.70;100468.00;5059112;28;45289;-53
2021/12/02 08:14:50;;;;;;;;;2.75;1.50;;;;;6.88;61.60;100473.25;5077386;28;45368;-51
2021/12/02 08:17:15;;;;;;;;;4.75;2.00;;;;;6.97;61.11;100484.84;5077153;28;46270;-54
2021/12/02 08:19:42;;;;;;;;;4.75;2.00;;;;;7.02;61.28;100480.00;5077118;28;45424;-54
2021/12/02 08:22:07;;;;;;;;;5.00;1.75;;;;;7.14;60.81;100480.75;5077202;28;45390;-59
2021/12/02 08:24:33;;;;;;;;;5.00;4.25;;;;;7.19;60.40;100492.63;5077241;28;45403;-55
2021/12/02 08:26:58;;;;;;;;;2.00;2.00;;;;;7.19;60.60;100489.97;5076904;28;47034;-55
2021/12/02 08:29:24;;;;;;;;;5.50;1.50;;;;;7.21;60.21;100487.22;5076929;28;45342;-56
2021/12/02 08:31:50;;;;;;;;;1.75;1.25;;;;;7.27;60.64;100499.06;5076916;28;45365;-56
2021/12/02 08:34:17;;;;;;;;;1.75;1.25;;;;;7.29;60.50;100494.47;5077254;28;45313;-55
2021/12/02 08:36:46;;;;;;;;;2.50;1.00;;;;;7.30;60.00;100497.00;5076760;28;47244;-55
2021/12/02 08:39:17;;;;;;;;;2.00;0.00;;;;;7.33;60.63;100493.25;5076623;28;45427;-55
2021/12/02 08:41:47;;;;;;;;;5.50;1.25;;;;;7.31;60.12;100495.19;5076568;28;45444;-54
2021/12/02 08:44:13;;;;;;;;;2.00;0.75;;;;;7.37;59.54;100499.94;5076508;28;45415;-55
2021/12/02 08:46:39;;;;;;;;;2.00;2.00;;;;;7.34;59.53;100511.66;5076055;28;46389;-53
2021/12/02 08:49:04;;;;;;;;;9.50;4.50;;;;;7.30;59.73;100514.69;5076245;28;45558;-53
2021/12/02 08:51:29;;;;;;;;;4.75;2.00;;;;;7.28;60.09;100508.69;5076423;28;45721;-53
2021/12/02 08:53:55;;;;;;;;;7.25;2.00;;;;;7.27;60.28;100512.31;5076545;28;45321;-54
2021/12/02 08:56:20;;;;;;;;;6.75;2.50;;;;;7.25;60.55;100513.28;5076369;28;45306;-55
2021/12/02 08:58:46;;;;;;;;;1.50;1.50;;;;;7.37;60.75;100519.31;5076291;28;45270;-54
2021/12/02 09:01:12;;;;;;;;;1.75;1.75;;;;;7.37;60.15;100500.78;5076315;28;45277;-54
2021/12/02 09:03:38;;;;;;;;;2.00;2.00;;;;;7.61;60.09;100526.13;5076344;28;45176;-53
2021/12/02 09:06:09;;;;;;;;;4.00;2.00;;;;;7.69;58.96;100527.13;5075860;28;45457;-55
2021/12/02 09:08:35;;;;;;;;;3.75;2.00;;;;;7.97;58.79;100536.16;5076510;28;45371;-53
2021/12/02 09:11:00;;;;;;;;;2.50;2.00;;;;;8.27;57.54;100536.22;5076442;28;45423;-55
2021/12/02 09:13:26;;;;;;;;;9.25;1.25;;;;;8.72;57.37;100532.09;5077676;28;45289;-55
2021/12/02 09:15:51;;;;;;;;;5.00;4.00;;;;;9.38;56.39;100533.13;5080709;28;46125;-55
2021/12/02 09:18:16;;;;;;;;;1.75;1.25;;;;;10.17;54.15;100536.13;5080507;28;45249;-55
2021/12/02 09:20:43;;;;;;;;;3.00;1.00;;;;;10.36;53.51;100550.31;5080915;28;45280;-55
2021/12/02 09:23:08;;;;;;;;;4.00;1.75;;;;;10.26;52.90;100536.25;5080883;28;45886;-54
2021/12/02 09:25:34;;;;;;;;;8.00;1.67;;;;;11.04;51.87;100544.44;5080515;28;46232;-55
2021/12/02 09:28:00;;;;;;;;;5.00;2.67;;;;;11.33;50.98;100560.13;5080610;28;45336;-54
2021/12/02 09:30:26;;;;;;;;;2.67;2.67;;;;;11.55;50.03;100546.31;5080655;28;45523;-54
2021/12/02 09:32:53;;;;;;;;;4.33;2.00;;;;;11.44;50.18;100550.06;5080722;28;45370;-55
2021/12/02 09:35:19;;;;;;;;;3.67;2.00;;;;;11.26;50.10;100561.78;5080075;28;45393;-56
2021/12/02 09:37:45;;;;;;;;;3.00;1.00;;;;;10.97;50.52;100557.56;5080402;28;45442;-55
2021/12/02 09:40:12;;;;;;;;;5.33;3.00;;;;;10.67;52.21;100556.94;5080543;28;45443;-55
2021/12/02 09:42:39;;;;;;;;;3.00;3.00;;;;;10.48;51.78;100565.06;5080416;28;45303;-55
2021/12/02 09:45:06;;;;;;;;;2.67;2.00;;;;;10.31;52.01;100564.03;5080011;28;47151;-53
2021/12/02 09:47:34;;;;;;;;;5.00;1.00;;;;;10.10;52.80;100571.41;5080173;28;45360;-52
2021/12/02 09:50:06;;;;;;;;;3.00;2.00;;;;;9.94;52.52;100572.03;5080427;28;45400;-53
2021/12/02 09:52:39;;;;;;;;;5.00;2.00;;;;;9.93;52.71;100573.03;5080611;28;45466;-54
2021/12/02 09:55:18;;;;;;;;;4.00;2.00;;;;;10.02;52.44;100566.84;5080168;28;46447;-55
2021/12/02 09:57:47;;;;;;;;;6.67;2.33;;;;;10.63;52.14;100576.03;5080227;28;45409;-57
2021/12/02 10:00:25;;;;;;;;;2.00;2.00;;;;;11.20;50.28;100569.38;5080126;28;45321;-54
2021/12/02 10:03:03;;;;;;;;;7.33;5.00;;;;;11.00;49.96;100562.56;5079928;28;45267;-54
2021/12/02 10:05:37;;;;;;;;;6.67;2.00;;;;;11.19;50.27;100591.66;5079995;28;45406;-54
2021/12/02 10:08:06;;;;;;;;;2.00;2.00;;;;;11.43;49.46;100592.84;5079933;28;45269;-51
2021/12/02 10:10:35;;;;;;;;;3.33;2.67;;;;;11.38;49.22;100588.00;5079963;28;45278;-51
2021/12/02 10:16:14;;;;;;;;;2.67;2.67;;;;;12.90;48.28;100585.47;5079754;28;45881;-52
2021/12/02 10:18:52;;;;;;;;;2.00;2.00;;;;;14.73;42.91;100566.75;5079339;28;45451;-52
2021/12/02 10:21:24;;;;;;;;;3.33;2.00;;;;;14.65;41.99;100567.63;5079725;28;45358;-52
2021/12/02 10:23:52;;;;;;;;;5.33;3.00;;;;;14.26;43.05;100583.72;5079591;28;45346;-51
2021/12/02 10:26:18;;;;;;;;;2.33;1.00;;;;;13.89;43.74;100574.50;5078230;28;46490;-54
2021/12/02 10:28:47;;;;;;;;;2.00;2.00;;;;;13.11;44.46;100579.63;5079545;28;45283;-52
2021/12/02 10:31:19;;;;;;;;;1.33;0.00;;;;;12.73;45.25;100577.44;5079651;28;45419;-53
2021/12/02 10:33:53;;;;;;;;;5.33;4.33;;;;;12.85;44.88;100575.28;5079622;28;45457;-54
2021/12/02 10:36:32;;;;;;;;;1.33;1.33;;;;;13.35;44.38;100576.94;5079485;28;46129;-52
2021/12/02 10:39:20;;;;;;;;;3.33;2.00;;;;;14.66;43.18;100571.13;5079511;28;45381;-53
2021/12/02 10:41:56;;;;;;;;;1.00;1.00;;;;;15.86;39.52;100568.59;5078984;28;45537;-53
2021/12/02 10:44:24;;;;;;;;;1.00;1.00;;;;;16.57;37.54;100569.69;5079296;28;45582;-54
2021/12/02 10:46:49;;;;;;;;;1.67;1.00;;;;;15.95;37.79;100567.47;5079289;28;47151;-54
2021/12/02 10:49:15;;;;;;;;;2.00;1.33;;;;;16.61;37.02;100557.53;5079224;28;45419;-53
2021/12/02 10:51:50;;;;;;;;;1.00;1.00;;;;;17.82;35.45;100555.66;5079464;28;45312;-54
2021/12/02 10:54:38;;;;;;;;;2.33;1.67;;;;;17.23;35.64;100549.84;5079504;28;45335;-52
2021/12/02 10:57:10;;;;;;;;;3.00;1.33;;;;;17.03;36.68;100569.34;5079173;28;45262;-53
2021/12/02 10:59:39;;;;;;;;;5.00;1.00;;;;;18.54;33.12;100540.84;5079179;28;45307;-53
2021/12/02 11:02:17;;;;;;;;;1.00;1.00;;;;;19.30;31.96;100547.75;5079142;28;45170;-54
2021/12/02 11:04:46;;;;;;;;;2.67;2.00;;;;;19.94;30.08;100534.38;5060944;28;45420;-52
2021/12/02 11:07:19;;;;;;;;;1.67;1.67;;;;;19.22;31.83;100539.88;5078911;28;46970;-55
2021/12/02 11:09:45;;;;;;;;;3.00;2.00;;;;;17.63;32.79;100538.34;5078791;28;45343;-53
2021/12/02 11:12:16;;;;;;;;;2.33;2.00;;;;;16.57;35.53;100548.19;5079049;28;45381;-55
2021/12/02 11:15:06;;;;;;;;;2.00;1.00;;;;;16.84;36.04;100543.09;5079112;28;45341;-52
2021/12/02 11:17:35;;;;;;;;;1.00;1.00;;;;;16.85;35.06;100537.53;5078478;28;46112;-53
2021/12/02 11:20:09;;;;;;;;;3.00;2.00;;;;;16.17;36.42;100534.31;5078764;28;45361;-54
2021/12/02 11:22:34;;;;;;;;;2.00;1.00;;;;;15.10;37.03;100525.78;5078852;28;45318;-54
2021/12/02 11:25:01;;;;;;;;;2.00;1.00;;;;;14.17;38.24;100539.28;5078702;28;45496;-53
2021/12/02 11:27:48;;;;;;;;;1.00;1.00;;;;;13.41;39.85;100546.06;5078305;28;46173;-51
2021/12/02 11:30:20;;;;;;;;;4.33;3.00;;;;;12.75;41.93;100542.56;5078418;28;46047;-55
2021/12/02 11:32:59;;;;;;;;;3.00;2.00;;;;;12.21;42.56;100548.28;5078383;28;45340;-54
2021/12/02 11:35:27;;;;;;;;;1.00;0.00;;;;;11.70;42.06;100533.22;5078825;28;45392;-56
2021/12/02 11:37:59;;;;;;;;;1.00;0.00;;;;;11.23;42.99;100554.91;5078076;28;46064;-52
2021/12/02 11:40:28;;;;;;;;;0.00;0.00;;;;;10.84;43.75;100551.78;5078584;28;45313;-52
2021/12/02 11:42:55;;;;;;;;;0.33;0.33;;;;;10.48;45.03;100557.09;5078219;28;45416;-52
2021/12/02 11:45:24;;;;;;;;;0.00;0.00;;;;;10.13;45.38;100566.66;5078731;28;45374;-55
2021/12/02 11:47:52;;;;;;;;;1.00;1.00;;;;;9.86;46.39;100566.63;5078107;28;46344;-52
2021/12/02 11:50:19;;;;;;;;;2.33;1.00;;;;;9.60;47.04;100566.44;5078031;28;45412;-52
2021/12/02 11:52:45;;;;;;;;;2.33;1.00;;;;;9.29;48.28;100552.56;5078355;28;45442;-54